Uvalde Research's Hourly Summary for Monday, February 13, 2017
Hour Temp
(f)
RH
(%)
Solar Rad.
(MJ/m2)
Rainfall
(in)
Wind
(mph)
2/13/2017 12:00 AM 0 0 0 0 0
2/13/2017 1:00 AM 67 66 0 0 4.36
2/13/2017 2:00 AM 65 67 0 0 3.87
2/13/2017 3:00 AM 64 66 0 0 4.15
2/13/2017 4:00 AM 64 65 0 0 4.62
2/13/2017 5:00 AM 63 68 0 0 4.34
2/13/2017 6:00 AM 61 79 0 0 3.94
2/13/2017 7:00 AM 61 80 0 0.03 3.11
2/13/2017 8:00 AM 60 83 0.02 0 3.63
2/13/2017 9:00 AM 61 76 0.14 0 4.58
2/13/2017 10:00 AM 62 76 0.28 0 4.13
2/13/2017 11:00 AM 64 75 0.38 0 4.21
2/13/2017 12:00 PM 67 76 0.99 0 4.74
2/13/2017 1:00 PM 72 72 2.19 0 5.73
2/13/2017 2:00 PM 74 70 0.99 0 5.3
2/13/2017 3:00 PM 74 71 0.46 0.01 4.35
2/13/2017 4:00 PM 72 76 1.18 0 1.37
2/13/2017 5:00 PM 77 66 0.93 0 0.77
2/13/2017 6:00 PM 76 64 0.13 0 1.69
2/13/2017 7:00 PM 70 73 0.01 0 1.27
2/13/2017 8:00 PM 65 79 0 0 1.37
2/13/2017 9:00 PM 61 85 0 0 0.1
2/13/2017 10:00 PM 61 87 0 0 0
2/13/2017 11:00 PM 62 86 0 0 0
Data Summary 63 71 7.70 0.04 2.98